sensor_id;sensor_type;location;lat;lon;timestamp;temperature;humidity
43151;DHT22;28755;51.478;5.702;2023-04-25T00:01:47;7.80;99.90
43151;DHT22;28755;51.478;5.702;2023-04-25T00:04:13;7.80;99.90
43151;DHT22;28755;51.478;5.702;2023-04-25T00:06:38;7.80;99.90
43151;DHT22;28755;51.478;5.702;2023-04-25T00:09:05;7.80;99.90
43151;DHT22;28755;51.478;5.702;2023-04-25T00:11:33;7.70;99.90
43151;DHT22;28755;51.478;5.702;2023-04-25T00:13:59;7.70;99.90
43151;DHT22;28755;51.478;5.702;2023-04-25T00:16:27;7.70;99.90
43151;DHT22;28755;51.478;5.702;2023-04-25T00:18:54;7.70;99.90
43151;DHT22;28755;51.478;5.702;2023-04-25T00:21:20;7.70;99.90
43151;DHT22;28755;51.478;5.702;2023-04-25T00:23:46;7.80;99.90
43151;DHT22;28755;51.478;5.702;2023-04-25T00:26:12;7.70;99.90
43151;DHT22;28755;51.478;5.702;2023-04-25T00:28:38;7.70;99.90
43151;DHT22;28755;51.478;5.702;2023-04-25T00:31:04;7.70;99.90
43151;DHT22;28755;51.478;5.702;2023-04-25T00:33:29;7.70;99.90
43151;DHT22;28755;51.478;5.702;2023-04-25T00:35:55;7.70;99.90
43151;DHT22;28755;51.478;5.702;2023-04-25T00:38:21;7.70;99.90
43151;DHT22;28755;51.478;5.702;2023-04-25T00:40:47;7.70;99.90
43151;DHT22;28755;51.478;5.702;2023-04-25T00:43:13;7.60;99.90
43151;DHT22;28755;51.478;5.702;2023-04-25T00:45:39;7.60;99.90
43151;DHT22;28755;51.478;5.702;2023-04-25T00:48:05;7.60;99.90
43151;DHT22;28755;51.478;5.702;2023-04-25T00:50:33;7.70;99.90
43151;DHT22;28755;51.478;5.702;2023-04-25T00:52:59;7.60;99.90
43151;DHT22;28755;51.478;5.702;2023-04-25T00:55:25;7.60;99.90
43151;DHT22;28755;51.478;5.702;2023-04-25T00:57:51;7.50;99.90
43151;DHT22;28755;51.478;5.702;2023-04-25T01:00:17;7.50;99.90
43151;DHT22;28755;51.478;5.702;2023-04-25T01:02:43;7.50;99.90
43151;DHT22;28755;51.478;5.702;2023-04-25T01:05:10;7.40;99.90
43151;DHT22;28755;51.478;5.702;2023-04-25T01:07:35;7.40;99.90
43151;DHT22;28755;51.478;5.702;2023-04-25T01:10:01;7.30;99.90
43151;DHT22;28755;51.478;5.702;2023-04-25T01:12:27;7.30;99.90
43151;DHT22;28755;51.478;5.702;2023-04-25T01:14:53;7.30;99.90
43151;DHT22;28755;51.478;5.702;2023-04-25T01:17:19;7.30;99.90
43151;DHT22;28755;51.478;5.702;2023-04-25T01:19:45;7.30;99.90
43151;DHT22;28755;51.478;5.702;2023-04-25T01:22:13;7.30;99.90
43151;DHT22;28755;51.478;5.702;2023-04-25T01:24:39;7.30;99.90
43151;DHT22;28755;51.478;5.702;2023-04-25T01:27:05;7.30;99.90
43151;DHT22;28755;51.478;5.702;2023-04-25T01:29:32;7.20;99.90
43151;DHT22;28755;51.478;5.702;2023-04-25T01:31:58;7.20;99.90
43151;DHT22;28755;51.478;5.702;2023-04-25T01:34:24;7.10;99.90
43151;DHT22;28755;51.478;5.702;2023-04-25T01:36:50;7.10;99.90
43151;DHT22;28755;51.478;5.702;2023-04-25T01:39:17;7.00;99.90
43151;DHT22;28755;51.478;5.702;2023-04-25T01:41:43;7.00;99.90
43151;DHT22;28755;51.478;5.702;2023-04-25T01:44:09;6.90;99.90
43151;DHT22;28755;51.478;5.702;2023-04-25T01:46:34;6.80;99.90
43151;DHT22;28755;51.478;5.702;2023-04-25T01:49:00;6.80;99.90
43151;DHT22;28755;51.478;5.702;2023-04-25T01:51:26;6.80;99.90
43151;DHT22;28755;51.478;5.702;2023-04-25T01:53:52;6.80;99.90
43151;DHT22;28755;51.478;5.702;2023-04-25T01:56:18;6.80;99.90
43151;DHT22;28755;51.478;5.702;2023-04-25T01:58:45;6.70;99.90
43151;DHT22;28755;51.478;5.702;2023-04-25T02:01:11;6.70;99.90
43151;DHT22;28755;51.478;5.702;2023-04-25T02:03:36;6.70;99.90
43151;DHT22;28755;51.478;5.702;2023-04-25T02:06:02;6.70;99.90
43151;DHT22;28755;51.478;5.702;2023-04-25T02:08:27;6.80;99.90
43151;DHT22;28755;51.478;5.702;2023-04-25T02:10:53;6.80;99.90
43151;DHT22;28755;51.478;5.702;2023-04-25T02:13:18;6.80;99.90
43151;DHT22;28755;51.478;5.702;2023-04-25T02:15:44;6.90;99.90
43151;DHT22;28755;51.478;5.702;2023-04-25T02:18:10;6.90;99.90
43151;DHT22;28755;51.478;5.702;2023-04-25T02:20:36;6.90;99.90
43151;DHT22;28755;51.478;5.702;2023-04-25T02:23:03;6.90;99.90
43151;DHT22;28755;51.478;5.702;2023-04-25T02:25:28;6.90;99.90
43151;DHT22;28755;51.478;5.702;2023-04-25T02:27:54;6.90;99.90
43151;DHT22;28755;51.478;5.702;2023-04-25T02:30:20;6.90;99.90
43151;DHT22;28755;51.478;5.702;2023-04-25T02:32:45;6.80;99.90
43151;DHT22;28755;51.478;5.702;2023-04-25T02:35:11;6.80;99.90
43151;DHT22;28755;51.478;5.702;2023-04-25T02:37:38;6.70;99.90
43151;DHT22;28755;51.478;5.702;2023-04-25T02:40:05;6.70;99.90
43151;DHT22;28755;51.478;5.702;2023-04-25T02:42:31;6.60;99.90
43151;DHT22;28755;51.478;5.702;2023-04-25T02:44:56;6.60;99.90
43151;DHT22;28755;51.478;5.702;2023-04-25T02:47:22;6.60;99.90
43151;DHT22;28755;51.478;5.702;2023-04-25T02:49:47;6.50;99.90
43151;DHT22;28755;51.478;5.702;2023-04-25T02:52:13;6.50;99.90
43151;DHT22;28755;51.478;5.702;2023-04-25T02:54:40;6.50;99.90
43151;DHT22;28755;51.478;5.702;2023-04-25T02:57:06;6.50;99.90
43151;DHT22;28755;51.478;5.702;2023-04-25T02:59:32;6.40;99.90
43151;DHT22;28755;51.478;5.702;2023-04-25T03:01:57;6.50;99.90
43151;DHT22;28755;51.478;5.702;2023-04-25T03:04:23;6.50;99.90
43151;DHT22;28755;51.478;5.702;2023-04-25T03:06:50;6.40;99.90
43151;DHT22;28755;51.478;5.702;2023-04-25T03:09:15;6.40;99.90
43151;DHT22;28755;51.478;5.702;2023-04-25T03:11:41;6.30;99.90
43151;DHT22;28755;51.478;5.702;2023-04-25T03:14:06;6.40;99.90
43151;DHT22;28755;51.478;5.702;2023-04-25T03:16:32;6.40;99.90
43151;DHT22;28755;51.478;5.702;2023-04-25T03:18:58;6.30;99.90
43151;DHT22;28755;51.478;5.702;2023-04-25T03:21:23;6.30;99.90
43151;DHT22;28755;51.478;5.702;2023-04-25T03:23:49;6.30;99.90
43151;DHT22;28755;51.478;5.702;2023-04-25T03:26:14;6.20;99.90
43151;DHT22;28755;51.478;5.702;2023-04-25T03:28:41;6.20;99.90
43151;DHT22;28755;51.478;5.702;2023-04-25T03:31:06;6.20;99.90
43151;DHT22;28755;51.478;5.702;2023-04-25T03:33:32;6.20;99.90
43151;DHT22;28755;51.478;5.702;2023-04-25T03:35:57;6.20;99.90
43151;DHT22;28755;51.478;5.702;2023-04-25T03:38:23;6.10;99.90
43151;DHT22;28755;51.478;5.702;2023-04-25T03:40:49;6.10;99.90
43151;DHT22;28755;51.478;5.702;2023-04-25T03:43:16;6.10;99.90
43151;DHT22;28755;51.478;5.702;2023-04-25T03:45:41;6.20;99.90
43151;DHT22;28755;51.478;5.702;2023-04-25T03:48:07;6.10;99.90
43151;DHT22;28755;51.478;5.702;2023-04-25T03:50:32;6.10;99.90
43151;DHT22;28755;51.478;5.702;2023-04-25T03:52:58;6.00;99.90
43151;DHT22;28755;51.478;5.702;2023-04-25T03:55:24;6.10;99.90
43151;DHT22;28755;51.478;5.702;2023-04-25T03:57:49;6.10;99.90
43151;DHT22;28755;51.478;5.702;2023-04-25T04:00:15;6.10;99.90
43151;DHT22;28755;51.478;5.702;2023-04-25T04:02:41;6.10;99.90
43151;DHT22;28755;51.478;5.702;2023-04-25T04:05:06;6.20;99.90
43151;DHT22;28755;51.478;5.702;2023-04-25T04:07:32;6.30;99.90
43151;DHT22;28755;51.478;5.702;2023-04-25T04:09:59;6.30;99.90
43151;DHT22;28755;51.478;5.702;2023-04-25T04:12:24;6.40;99.90
43151;DHT22;28755;51.478;5.702;2023-04-25T04:14:50;6.40;99.90
43151;DHT22;28755;51.478;5.702;2023-04-25T04:17:15;6.40;99.90
43151;DHT22;28755;51.478;5.702;2023-04-25T04:19:41;6.40;99.90
43151;DHT22;28755;51.478;5.702;2023-04-25T04:22:07;6.30;99.90
43151;DHT22;28755;51.478;5.702;2023-04-25T04:24:32;6.30;99.90
43151;DHT22;28755;51.478;5.702;2023-04-25T04:26:58;6.30;99.90
43151;DHT22;28755;51.478;5.702;2023-04-25T04:29:24;6.30;99.90
43151;DHT22;28755;51.478;5.702;2023-04-25T04:31:50;6.30;99.90
43151;DHT22;28755;51.478;5.702;2023-04-25T04:34:16;6.30;99.90
43151;DHT22;28755;51.478;5.702;2023-04-25T04:36:44;6.30;99.90
43151;DHT22;28755;51.478;5.702;2023-04-25T04:39:12;6.30;99.90
43151;DHT22;28755;51.478;5.702;2023-04-25T04:41:37;6.30;99.90
43151;DHT22;28755;51.478;5.702;2023-04-25T04:44:03;6.50;99.90
43151;DHT22;28755;51.478;5.702;2023-04-25T04:46:29;6.40;99.90
43151;DHT22;28755;51.478;5.702;2023-04-25T04:48:56;6.50;99.90
43151;DHT22;28755;51.478;5.702;2023-04-25T04:51:22;6.50;99.90
43151;DHT22;28755;51.478;5.702;2023-04-25T04:53:47;6.50;99.90
43151;DHT22;28755;51.478;5.702;2023-04-25T04:56:13;6.50;99.90
43151;DHT22;28755;51.478;5.702;2023-04-25T04:58:38;6.60;99.90
43151;DHT22;28755;51.478;5.702;2023-04-25T05:01:04;6.60;99.90
43151;DHT22;28755;51.478;5.702;2023-04-25T05:03:30;6.70;99.90
43151;DHT22;28755;51.478;5.702;2023-04-25T05:05:55;6.90;99.90
43151;DHT22;28755;51.478;5.702;2023-04-25T05:08:21;6.80;99.90
43151;DHT22;28755;51.478;5.702;2023-04-25T05:10:47;6.80;99.90
43151;DHT22;28755;51.478;5.702;2023-04-25T05:13:12;6.80;99.90
43151;DHT22;28755;51.478;5.702;2023-04-25T05:15:38;6.90;99.90
43151;DHT22;28755;51.478;5.702;2023-04-25T05:18:03;6.90;99.90
43151;DHT22;28755;51.478;5.702;2023-04-25T05:20:29;7.00;99.90
43151;DHT22;28755;51.478;5.702;2023-04-25T05:22:55;7.10;99.90
43151;DHT22;28755;51.478;5.702;2023-04-25T05:25:20;7.10;99.90
43151;DHT22;28755;51.478;5.702;2023-04-25T05:27:46;7.30;99.90
43151;DHT22;28755;51.478;5.702;2023-04-25T05:30:12;7.20;99.90
43151;DHT22;28755;51.478;5.702;2023-04-25T05:32:37;7.20;99.90
43151;DHT22;28755;51.478;5.702;2023-04-25T05:35:03;7.20;99.90
43151;DHT22;28755;51.478;5.702;2023-04-25T05:37:28;7.30;99.90
43151;DHT22;28755;51.478;5.702;2023-04-25T05:39:56;7.20;99.90
43151;DHT22;28755;51.478;5.702;2023-04-25T05:42:21;7.20;99.90
43151;DHT22;28755;51.478;5.702;2023-04-25T05:44:47;7.20;99.90
43151;DHT22;28755;51.478;5.702;2023-04-25T05:47:12;7.30;99.90
43151;DHT22;28755;51.478;5.702;2023-04-25T05:49:38;7.40;99.90
43151;DHT22;28755;51.478;5.702;2023-04-25T05:52:04;7.60;99.90
43151;DHT22;28755;51.478;5.702;2023-04-25T05:54:29;7.50;99.90
43151;DHT22;28755;51.478;5.702;2023-04-25T05:56:56;7.50;99.90
43151;DHT22;28755;51.478;5.702;2023-04-25T05:59:22;7.60;99.90
43151;DHT22;28755;51.478;5.702;2023-04-25T06:01:47;7.70;99.90
43151;DHT22;28755;51.478;5.702;2023-04-25T06:04:13;7.80;99.90
43151;DHT22;28755;51.478;5.702;2023-04-25T06:06:39;7.90;99.90
43151;DHT22;28755;51.478;5.702;2023-04-25T06:09:04;7.90;99.90
43151;DHT22;28755;51.478;5.702;2023-04-25T06:11:30;7.90;99.90
43151;DHT22;28755;51.478;5.702;2023-04-25T06:13:55;7.90;99.90
43151;DHT22;28755;51.478;5.702;2023-04-25T06:16:21;8.00;99.90
43151;DHT22;28755;51.478;5.702;2023-04-25T06:18:46;8.00;99.90
43151;DHT22;28755;51.478;5.702;2023-04-25T06:21:12;8.00;99.90
43151;DHT22;28755;51.478;5.702;2023-04-25T06:23:37;8.20;99.90
43151;DHT22;28755;51.478;5.702;2023-04-25T06:26:03;8.30;99.90
43151;DHT22;28755;51.478;5.702;2023-04-25T06:28:29;8.40;99.90
43151;DHT22;28755;51.478;5.702;2023-04-25T06:30:54;8.50;99.90
43151;DHT22;28755;51.478;5.702;2023-04-25T06:33:20;8.40;99.90
43151;DHT22;28755;51.478;5.702;2023-04-25T06:35:46;8.50;99.90
43151;DHT22;28755;51.478;5.702;2023-04-25T06:38:12;8.70;99.90
43151;DHT22;28755;51.478;5.702;2023-04-25T06:40:38;8.90;99.90
43151;DHT22;28755;51.478;5.702;2023-04-25T06:43:04;9.20;99.90
43151;DHT22;28755;51.478;5.702;2023-04-25T06:45:30;9.40;99.90
43151;DHT22;28755;51.478;5.702;2023-04-25T06:47:55;9.70;99.90
43151;DHT22;28755;51.478;5.702;2023-04-25T06:50:21;9.70;99.90
43151;DHT22;28755;51.478;5.702;2023-04-25T06:52:46;9.80;99.90
43151;DHT22;28755;51.478;5.702;2023-04-25T06:55:12;9.90;99.90
43151;DHT22;28755;51.478;5.702;2023-04-25T06:57:38;9.90;99.90
43151;DHT22;28755;51.478;5.702;2023-04-25T07:00:04;9.70;99.90
43151;DHT22;28755;51.478;5.702;2023-04-25T07:02:31;9.50;99.90
43151;DHT22;28755;51.478;5.702;2023-04-25T07:04:56;9.50;99.90
43151;DHT22;28755;51.478;5.702;2023-04-25T07:07:25;9.50;99.90
43151;DHT22;28755;51.478;5.702;2023-04-25T07:09:50;9.60;99.90
43151;DHT22;28755;51.478;5.702;2023-04-25T07:12:16;9.60;99.90
43151;DHT22;28755;51.478;5.702;2023-04-25T07:14:42;9.60;99.90
43151;DHT22;28755;51.478;5.702;2023-04-25T07:17:07;9.60;99.90
43151;DHT22;28755;51.478;5.702;2023-04-25T07:19:33;9.40;99.90
43151;DHT22;28755;51.478;5.702;2023-04-25T07:21:58;9.40;99.90
43151;DHT22;28755;51.478;5.702;2023-04-25T07:24:24;9.60;99.90
43151;DHT22;28755;51.478;5.702;2023-04-25T07:26:50;9.80;99.90
43151;DHT22;28755;51.478;5.702;2023-04-25T07:29:16;9.70;99.90
43151;DHT22;28755;51.478;5.702;2023-04-25T07:31:41;9.70;99.90
43151;DHT22;28755;51.478;5.702;2023-04-25T07:34:07;9.70;99.90
43151;DHT22;28755;51.478;5.702;2023-04-25T07:36:32;9.80;99.90
43151;DHT22;28755;51.478;5.702;2023-04-25T07:38:58;10.10;99.90
43151;DHT22;28755;51.478;5.702;2023-04-25T07:41:24;10.40;99.90
43151;DHT22;28755;51.478;5.702;2023-04-25T07:43:49;10.20;99.90
43151;DHT22;28755;51.478;5.702;2023-04-25T07:46:15;10.20;99.90
43151;DHT22;28755;51.478;5.702;2023-04-25T07:48:40;10.50;99.90
43151;DHT22;28755;51.478;5.702;2023-04-25T07:51:06;10.80;99.90
43151;DHT22;28755;51.478;5.702;2023-04-25T07:53:32;11.00;99.90
43151;DHT22;28755;51.478;5.702;2023-04-25T07:56:00;10.70;99.90
43151;DHT22;28755;51.478;5.702;2023-04-25T07:58:25;11.20;99.90
43151;DHT22;28755;51.478;5.702;2023-04-25T08:00:51;11.30;99.90
43151;DHT22;28755;51.478;5.702;2023-04-25T08:03:16;11.50;99.90
43151;DHT22;28755;51.478;5.702;2023-04-25T08:05:42;11.70;99.90
43151;DHT22;28755;51.478;5.702;2023-04-25T08:08:08;11.70;99.90
43151;DHT22;28755;51.478;5.702;2023-04-25T08:10:34;11.80;99.90
43151;DHT22;28755;51.478;5.702;2023-04-25T08:12:59;11.80;99.90
43151;DHT22;28755;51.478;5.702;2023-04-25T08:15:25;12.00;99.90
43151;DHT22;28755;51.478;5.702;2023-04-25T08:17:51;12.40;99.90
43151;DHT22;28755;51.478;5.702;2023-04-25T08:20:17;12.70;99.90
43151;DHT22;28755;51.478;5.702;2023-04-25T08:22:43;12.70;99.90
43151;DHT22;28755;51.478;5.702;2023-04-25T08:25:09;12.50;99.90
43151;DHT22;28755;51.478;5.702;2023-04-25T08:27:34;13.10;99.90
43151;DHT22;28755;51.478;5.702;2023-04-25T08:30:00;13.60;99.90
43151;DHT22;28755;51.478;5.702;2023-04-25T08:32:26;14.20;99.90
43151;DHT22;28755;51.478;5.702;2023-04-25T08:34:51;15.30;99.90
43151;DHT22;28755;51.478;5.702;2023-04-25T08:37:19;14.60;99.90
43151;DHT22;28755;51.478;5.702;2023-04-25T08:39:45;12.80;99.90
43151;DHT22;28755;51.478;5.702;2023-04-25T08:42:15;11.50;99.90
43151;DHT22;28755;51.478;5.702;2023-04-25T08:44:40;10.90;99.90
43151;DHT22;28755;51.478;5.702;2023-04-25T08:47:06;11.10;99.90
43151;DHT22;28755;51.478;5.702;2023-04-25T08:49:33;11.30;99.90
43151;DHT22;28755;51.478;5.702;2023-04-25T08:52:03;11.60;99.90
43151;DHT22;28755;51.478;5.702;2023-04-25T08:54:31;11.90;99.90
43151;DHT22;28755;51.478;5.702;2023-04-25T08:57:00;12.10;99.90
43151;DHT22;28755;51.478;5.702;2023-04-25T08:59:28;12.10;99.90
43151;DHT22;28755;51.478;5.702;2023-04-25T09:01:53;12.20;99.90
43151;DHT22;28755;51.478;5.702;2023-04-25T09:04:20;12.10;99.90
43151;DHT22;28755;51.478;5.702;2023-04-25T09:06:47;11.70;99.90
43151;DHT22;28755;51.478;5.702;2023-04-25T09:09:12;11.20;99.90
43151;DHT22;28755;51.478;5.702;2023-04-25T09:11:39;11.00;99.90
43151;DHT22;28755;51.478;5.702;2023-04-25T09:14:15;10.90;99.90
43151;DHT22;28755;51.478;5.702;2023-04-25T09:17:10;10.90;99.90
43151;DHT22;28755;51.478;5.702;2023-04-25T09:19:37;10.90;99.90
43151;DHT22;28755;51.478;5.702;2023-04-25T09:22:06;11.20;99.90
43151;DHT22;28755;51.478;5.702;2023-04-25T09:24:39;11.40;99.90
43151;DHT22;28755;51.478;5.702;2023-04-25T09:27:07;12.10;99.90
43151;DHT22;28755;51.478;5.702;2023-04-25T09:29:35;13.70;99.90
43151;DHT22;28755;51.478;5.702;2023-04-25T09:34:47;17.50;99.90
43151;DHT22;28755;51.478;5.702;2023-04-25T09:37:21;17.50;99.90
43151;DHT22;28755;51.478;5.702;2023-04-25T09:39:54;17.40;99.90
43151;DHT22;28755;51.478;5.702;2023-04-25T09:42:24;18.10;99.90
43151;DHT22;28755;51.478;5.702;2023-04-25T09:44:53;19.40;98.50
43151;DHT22;28755;51.478;5.702;2023-04-25T09:47:19;18.60;98.10
43151;DHT22;28755;51.478;5.702;2023-04-25T09:49:46;16.70;97.20
43151;DHT22;28755;51.478;5.702;2023-04-25T09:52:17;14.70;99.90
43151;DHT22;28755;51.478;5.702;2023-04-25T09:54:44;14.10;99.90
43151;DHT22;28755;51.478;5.702;2023-04-25T09:57:15;13.70;99.90
43151;DHT22;28755;51.478;5.702;2023-04-25T09:59:46;13.20;99.90
43151;DHT22;28755;51.478;5.702;2023-04-25T10:02:15;12.20;99.90
43151;DHT22;28755;51.478;5.702;2023-04-25T10:04:41;11.50;99.90
43151;DHT22;28755;51.478;5.702;2023-04-25T10:07:08;10.90;99.90
43151;DHT22;28755;51.478;5.702;2023-04-25T10:09:37;11.30;99.90
43151;DHT22;28755;51.478;5.702;2023-04-25T10:12:03;12.60;99.90
43151;DHT22;28755;51.478;5.702;2023-04-25T10:14:31;11.90;99.90
43151;DHT22;28755;51.478;5.702;2023-04-25T10:16:58;11.10;99.90
43151;DHT22;28755;51.478;5.702;2023-04-25T10:19:24;10.50;99.90
43151;DHT22;28755;51.478;5.702;2023-04-25T10:21:54;10.30;99.90
43151;DHT22;28755;51.478;5.702;2023-04-25T10:24:21;10.40;99.90
43151;DHT22;28755;51.478;5.702;2023-04-25T10:26:47;10.80;99.90
43151;DHT22;28755;51.478;5.702;2023-04-25T10:29:21;11.10;99.90
43151;DHT22;28755;51.478;5.702;2023-04-25T10:31:48;12.20;99.90
43151;DHT22;28755;51.478;5.702;2023-04-25T10:34:13;15.10;99.90
43151;DHT22;28755;51.478;5.702;2023-04-25T10:36:39;17.60;99.90
43151;DHT22;28755;51.478;5.702;2023-04-25T10:39:05;19.30;98.80
43151;DHT22;28755;51.478;5.702;2023-04-25T10:41:46;20.20;95.20
43151;DHT22;28755;51.478;5.702;2023-04-25T10:44:13;19.10;94.90
43151;DHT22;28755;51.478;5.702;2023-04-25T10:46:39;19.90;93.10
43151;DHT22;28755;51.478;5.702;2023-04-25T10:49:08;20.50;90.40
43151;DHT22;28755;51.478;5.702;2023-04-25T10:51:35;21.80;90.20
43151;DHT22;28755;51.478;5.702;2023-04-25T10:54:03;22.20;88.00
43151;DHT22;28755;51.478;5.702;2023-04-25T10:56:31;21.60;86.80
43151;DHT22;28755;51.478;5.702;2023-04-25T10:59:15;21.30;86.60
43151;DHT22;28755;51.478;5.702;2023-04-25T11:01:42;21.50;86.80
43151;DHT22;28755;51.478;5.702;2023-04-25T11:07:11;21.10;87.20
43151;DHT22;28755;51.478;5.702;2023-04-25T11:09:40;20.80;88.40
43151;DHT22;28755;51.478;5.702;2023-04-25T11:12:08;21.20;86.30
43151;DHT22;28755;51.478;5.702;2023-04-25T11:14:35;21.40;86.80
43151;DHT22;28755;51.478;5.702;2023-04-25T11:17:01;23.30;87.70
43151;DHT22;28755;51.478;5.702;2023-04-25T11:19:28;21.40;85.10
43151;DHT22;28755;51.478;5.702;2023-04-25T11:22:01;19.20;86.30
43151;DHT22;28755;51.478;5.702;2023-04-25T11:24:32;16.00;87.70
43151;DHT22;28755;51.478;5.702;2023-04-25T11:26:58;14.30;92.30
43151;DHT22;28755;51.478;5.702;2023-04-25T11:29:31;13.30;97.00
43151;DHT22;28755;51.478;5.702;2023-04-25T11:31:57;12.30;99.90
43151;DHT22;28755;51.478;5.702;2023-04-25T11:34:24;11.20;99.90
43151;DHT22;28755;51.478;5.702;2023-04-25T11:36:51;10.60;99.90
43151;DHT22;28755;51.478;5.702;2023-04-25T11:39:18;10.10;99.90
43151;DHT22;28755;51.478;5.702;2023-04-25T11:41:44;9.90;99.90
43151;DHT22;28755;51.478;5.702;2023-04-25T11:44:10;9.80;99.90
43151;DHT22;28755;51.478;5.702;2023-04-25T11:46:36;9.90;99.90
43151;DHT22;28755;51.478;5.702;2023-04-25T11:49:02;10.10;99.90
43151;DHT22;28755;51.478;5.702;2023-04-25T11:51:30;10.10;99.90
43151;DHT22;28755;51.478;5.702;2023-04-25T11:53:57;10.10;99.90
43151;DHT22;28755;51.478;5.702;2023-04-25T11:56:22;10.30;99.90
43151;DHT22;28755;51.478;5.702;2023-04-25T11:58:59;10.50;99.90
43151;DHT22;28755;51.478;5.702;2023-04-25T12:01:32;10.60;99.90
43151;DHT22;28755;51.478;5.702;2023-04-25T12:04:09;10.60;99.90
43151;DHT22;28755;51.478;5.702;2023-04-25T12:06:39;10.90;99.90
43151;DHT22;28755;51.478;5.702;2023-04-25T12:09:08;11.50;99.90
43151;DHT22;28755;51.478;5.702;2023-04-25T12:11:47;12.50;99.90
43151;DHT22;28755;51.478;5.702;2023-04-25T12:14:25;13.40;99.90
43151;DHT22;28755;51.478;5.702;2023-04-25T12:16:53;13.50;99.90
43151;DHT22;28755;51.478;5.702;2023-04-25T12:19:20;14.50;99.90
43151;DHT22;28755;51.478;5.702;2023-04-25T12:21:46;15.10;99.90
43151;DHT22;28755;51.478;5.702;2023-04-25T12:24:17;15.00;99.90
43151;DHT22;28755;51.478;5.702;2023-04-25T12:27:09;14.80;99.90
43151;DHT22;28755;51.478;5.702;2023-04-25T12:29:35;14.00;99.90
43151;DHT22;28755;51.478;5.702;2023-04-25T12:32:01;14.40;99.90
43151;DHT22;28755;51.478;5.702;2023-04-25T12:34:29;14.70;99.90
43151;DHT22;28755;51.478;5.702;2023-04-25T12:36:57;15.10;99.90
43151;DHT22;28755;51.478;5.702;2023-04-25T12:39:24;15.20;99.90
43151;DHT22;28755;51.478;5.702;2023-04-25T12:41:51;15.10;99.90
43151;DHT22;28755;51.478;5.702;2023-04-25T12:44:19;15.20;99.90
43151;DHT22;28755;51.478;5.702;2023-04-25T12:46:45;15.60;99.90
43151;DHT22;28755;51.478;5.702;2023-04-25T12:49:11;15.80;99.90
43151;DHT22;28755;51.478;5.702;2023-04-25T12:51:37;16.00;99.90
43151;DHT22;28755;51.478;5.702;2023-04-25T12:54:04;15.60;99.90
43151;DHT22;28755;51.478;5.702;2023-04-25T12:56:30;14.50;99.90
43151;DHT22;28755;51.478;5.702;2023-04-25T12:58:56;13.80;99.90
43151;DHT22;28755;51.478;5.702;2023-04-25T13:01:23;13.30;99.90
43151;DHT22;28755;51.478;5.702;2023-04-25T13:03:48;12.90;99.90
43151;DHT22;28755;51.478;5.702;2023-04-25T13:06:15;12.40;99.90
43151;DHT22;28755;51.478;5.702;2023-04-25T13:08:41;12.70;99.90
43151;DHT22;28755;51.478;5.702;2023-04-25T13:11:07;13.40;99.90
43151;DHT22;28755;51.478;5.702;2023-04-25T13:13:33;13.90;99.90
43151;DHT22;28755;51.478;5.702;2023-04-25T13:16:00;14.50;99.80
43151;DHT22;28755;51.478;5.702;2023-04-25T13:18:27;14.90;98.70
43151;DHT22;28755;51.478;5.702;2023-04-25T13:20:53;15.50;98.40
43151;DHT22;28755;51.478;5.702;2023-04-25T13:23:19;15.30;98.80
43151;DHT22;28755;51.478;5.702;2023-04-25T13:25:46;15.20;99.40
43151;DHT22;28755;51.478;5.702;2023-04-25T13:28:12;15.40;99.90
43151;DHT22;28755;51.478;5.702;2023-04-25T13:30:37;13.90;99.90
43151;DHT22;28755;51.478;5.702;2023-04-25T13:33:03;13.10;99.90
43151;DHT22;28755;51.478;5.702;2023-04-25T13:35:30;12.50;99.90
43151;DHT22;28755;51.478;5.702;2023-04-25T13:37:56;12.10;99.90
43151;DHT22;28755;51.478;5.702;2023-04-25T13:40:22;12.20;99.90
43151;DHT22;28755;51.478;5.702;2023-04-25T13:42:55;12.80;99.90
43151;DHT22;28755;51.478;5.702;2023-04-25T13:45:21;13.40;99.90
43151;DHT22;28755;51.478;5.702;2023-04-25T13:47:46;13.90;99.90
43151;DHT22;28755;51.478;5.702;2023-04-25T13:50:12;14.70;99.90
43151;DHT22;28755;51.478;5.702;2023-04-25T13:52:39;14.50;99.90
43151;DHT22;28755;51.478;5.702;2023-04-25T13:55:05;14.20;99.90
43151;DHT22;28755;51.478;5.702;2023-04-25T13:57:32;14.00;99.90
43151;DHT22;28755;51.478;5.702;2023-04-25T13:59:58;13.70;99.90
43151;DHT22;28755;51.478;5.702;2023-04-25T14:02:24;13.70;99.90
43151;DHT22;28755;51.478;5.702;2023-04-25T14:04:50;13.40;99.90
43151;DHT22;28755;51.478;5.702;2023-04-25T14:07:15;13.60;99.90
43151;DHT22;28755;51.478;5.702;2023-04-25T14:09:42;13.60;99.90
43151;DHT22;28755;51.478;5.702;2023-04-25T14:12:07;13.50;99.90
43151;DHT22;28755;51.478;5.702;2023-04-25T14:14:33;14.30;99.90
43151;DHT22;28755;51.478;5.702;2023-04-25T14:16:58;14.80;99.90
43151;DHT22;28755;51.478;5.702;2023-04-25T14:19:24;15.50;99.90
43151;DHT22;28755;51.478;5.702;2023-04-25T14:21:50;15.70;99.90
43151;DHT22;28755;51.478;5.702;2023-04-25T14:24:16;14.60;99.90
43151;DHT22;28755;51.478;5.702;2023-04-25T14:26:42;14.20;99.90
43151;DHT22;28755;51.478;5.702;2023-04-25T14:29:08;13.70;99.90
43151;DHT22;28755;51.478;5.702;2023-04-25T14:31:34;12.90;99.90
43151;DHT22;28755;51.478;5.702;2023-04-25T14:34:00;12.10;99.90
43151;DHT22;28755;51.478;5.702;2023-04-25T14:36:27;11.70;99.90
43151;DHT22;28755;51.478;5.702;2023-04-25T14:38:53;11.70;99.90
43151;DHT22;28755;51.478;5.702;2023-04-25T14:41:18;12.40;99.90
43151;DHT22;28755;51.478;5.702;2023-04-25T14:43:44;14.00;99.90
43151;DHT22;28755;51.478;5.702;2023-04-25T14:46:10;14.70;99.90
43151;DHT22;28755;51.478;5.702;2023-04-25T14:48:36;15.10;99.90
43151;DHT22;28755;51.478;5.702;2023-04-25T14:51:02;15.20;99.90
43151;DHT22;28755;51.478;5.702;2023-04-25T14:53:27;14.70;99.90
43151;DHT22;28755;51.478;5.702;2023-04-25T14:55:53;15.10;99.90
43151;DHT22;28755;51.478;5.702;2023-04-25T14:58:19;15.00;99.90
43151;DHT22;28755;51.478;5.702;2023-04-25T15:00:45;14.60;99.90
43151;DHT22;28755;51.478;5.702;2023-04-25T15:03:11;13.70;99.90
43151;DHT22;28755;51.478;5.702;2023-04-25T15:05:41;13.20;99.90
43151;DHT22;28755;51.478;5.702;2023-04-25T15:08:07;13.00;99.90
43151;DHT22;28755;51.478;5.702;2023-04-25T15:10:32;13.60;99.90
43151;DHT22;28755;51.478;5.702;2023-04-25T15:12:58;14.60;99.90
43151;DHT22;28755;51.478;5.702;2023-04-25T15:15:27;15.20;99.90
43151;DHT22;28755;51.478;5.702;2023-04-25T15:17:53;15.20;99.90
43151;DHT22;28755;51.478;5.702;2023-04-25T15:20:20;15.00;99.90
43151;DHT22;28755;51.478;5.702;2023-04-25T15:22:46;15.40;99.90
43151;DHT22;28755;51.478;5.702;2023-04-25T15:25:14;15.60;99.90
43151;DHT22;28755;51.478;5.702;2023-04-25T15:27:41;15.90;99.90
43151;DHT22;28755;51.478;5.702;2023-04-25T15:30:10;16.00;99.90
43151;DHT22;28755;51.478;5.702;2023-04-25T15:32:40;16.00;99.90
43151;DHT22;28755;51.478;5.702;2023-04-25T15:35:06;15.70;99.30
43151;DHT22;28755;51.478;5.702;2023-04-25T15:37:33;15.80;99.50
43151;DHT22;28755;51.478;5.702;2023-04-25T15:42:41;15.50;99.90